Time;durP1;ratioP1;P1;durP2;ratioP2;P2;SDS_P1;SDS_P2;PMS_P1;PMS_P2;Temp;Humidity;BMP_temperature;BMP_pressure;BME280_temperature;BME280_humidity;BME280_pressure;Samples;Min_cycle;Max_cycle;Signal;HPM_P1;HPM_P2
2022/05/02 00:00:11;;;;;;;21.60;7.45;;;;;;;;;;5013715;28;20014;-65
2022/05/02 00:02:37;;;;;;;17.13;6.57;;;;;;;;;;5013559;28;20490;-64
2022/05/02 00:05:04;;;;;;;14.38;5.88;;;;;;;;;;5013425;28;20051;-65
2022/05/02 00:07:30;;;;;;;15.70;6.80;;;;;;;;;;5013586;28;20018;-65
2022/05/02 00:09:56;;;;;;;14.55;6.88;;;;;;;;;;5013614;28;20450;-64
2022/05/02 00:12:22;;;;;;;17.35;6.65;;;;;;;;;;5013561;28;20321;-65
2022/05/02 00:14:47;;;;;;;17.10;7.22;;;;;;;;;;5013464;28;20444;-64
2022/05/02 00:17:13;;;;;;;19.27;11.27;;;;;;;;;;5013536;28;20117;-64
2022/05/02 00:19:38;;;;;;;54.78;26.27;;;;;;;;;;5011640;28;20021;-64
2022/05/02 00:22:04;;;;;;;30.48;17.33;;;;;;;;;;5012836;28;20191;-64
2022/05/02 00:24:30;;;;;;;23.25;10.93;;;;;;;;;;5013337;28;20384;-63
2022/05/02 00:26:56;;;;;;;18.08;7.57;;;;;;;;;;5013368;28;20128;-65
2022/05/02 00:29:22;;;;;;;16.58;8.35;;;;;;;;;;5013287;28;20391;-64
2022/05/02 00:31:47;;;;;;;19.00;8.55;;;;;;;;;;5013371;28;20029;-64
2022/05/02 00:34:13;;;;;;;15.20;8.73;;;;;;;;;;5013022;28;20387;-64
2022/05/02 00:36:39;;;;;;;26.05;14.38;;;;;;;;;;5013060;28;20042;-64
2022/05/02 00:39:05;;;;;;;16.92;9.20;;;;;;;;;;5013113;28;20034;-64
2022/05/02 00:41:31;;;;;;;24.05;15.68;;;;;;;;;;5013169;28;20096;-63
2022/05/02 00:43:56;;;;;;;15.32;8.25;;;;;;;;;;5013231;28;20033;-64
2022/05/02 00:46:25;;;;;;;17.52;8.35;;;;;;;;;;5013119;28;20464;-64
2022/05/02 00:48:52;;;;;;;16.08;8.13;;;;;;;;;;5012722;28;20030;-64
2022/05/02 00:51:19;;;;;;;15.45;8.68;;;;;;;;;;5013081;28;20113;-63
2022/05/02 00:53:47;;;;;;;13.43;8.38;;;;;;;;;;5013021;28;20053;-64
2022/05/02 00:56:13;;;;;;;15.05;7.45;;;;;;;;;;5013049;28;20037;-64
2022/05/02 00:58:39;;;;;;;14.00;7.47;;;;;;;;;;5011719;28;20033;-63
2022/05/02 01:01:05;;;;;;;15.07;8.15;;;;;;;;;;5013038;28;20030;-64
2022/05/02 01:03:33;;;;;;;11.52;7.72;;;;;;;;;;5012538;28;20034;-64
2022/05/02 01:08:43;;;;;;;13.10;7.90;;;;;;;;;;5013192;28;20442;-65
2022/05/02 01:11:09;;;;;;;15.15;7.30;;;;;;;;;;5012883;28;20042;-64
2022/05/02 01:13:40;;;;;;;16.95;7.38;;;;;;;;;;5012822;28;20021;-63
2022/05/02 01:16:26;;;;;;;15.15;7.90;;;;;;;;;;5012935;28;20030;-63
2022/05/02 01:18:54;;;;;;;13.65;7.05;;;;;;;;;;5012566;28;20037;-64
2022/05/02 01:21:23;;;;;;;12.35;7.18;;;;;;;;;;5012729;28;20137;-63
2022/05/02 01:23:51;;;;;;;15.48;7.53;;;;;;;;;;5012444;28;20038;-63
2022/05/02 01:26:17;;;;;;;13.40;7.70;;;;;;;;;;5012720;28;20360;-63
2022/05/02 01:28:52;;;;;;;12.55;7.50;;;;;;;;;;5012699;28;20471;-63
2022/05/02 01:31:19;;;;;;;14.27;7.47;;;;;;;;;;5012879;28;20111;-63
2022/05/02 01:33:46;;;;;;;13.68;7.53;;;;;;;;;;5016214;28;20036;-63
2022/05/02 01:36:12;;;;;;;12.77;7.60;;;;;;;;;;5016251;28;20022;-64
2022/05/02 01:38:37;;;;;;;13.25;7.72;;;;;;;;;;5015051;28;20497;-64
2022/05/02 01:41:07;;;;;;;16.67;7.55;;;;;;;;;;5016259;28;20030;-63
2022/05/02 01:43:33;;;;;;;16.20;7.63;;;;;;;;;;5016167;28;20036;-63
2022/05/02 01:45:59;;;;;;;11.27;6.95;;;;;;;;;;5016290;28;20068;-63
2022/05/02 01:48:26;;;;;;;15.98;8.38;;;;;;;;;;5014730;28;20470;-64
2022/05/02 01:50:51;;;;;;;15.43;7.38;;;;;;;;;;5016169;28;20100;-65
2022/05/02 01:53:17;;;;;;;21.30;8.18;;;;;;;;;;5016166;28;20057;-65
2022/05/02 01:55:42;;;;;;;18.00;7.93;;;;;;;;;;5016194;28;20471;-64
2022/05/02 01:58:08;;;;;;;14.50;7.53;;;;;;;;;;5016013;28;20483;-65
2022/05/02 02:00:34;;;;;;;14.15;7.38;;;;;;;;;;5016177;28;20372;-65
2022/05/02 02:02:59;;;;;;;16.35;7.65;;;;;;;;;;5015699;28;20357;-64
2022/05/02 02:08:09;;;;;;;13.90;7.07;;;;;;;;;;5015824;28;20041;-65
2022/05/02 02:10:34;;;;;;;14.60;7.85;;;;;;;;;;5015815;28;20026;-62
2022/05/02 02:13:00;;;;;;;16.08;8.20;;;;;;;;;;5015774;28;20373;-65
2022/05/02 02:15:25;;;;;;;16.45;7.88;;;;;;;;;;5015807;28;20064;-65
2022/05/02 02:17:51;;;;;;;20.10;7.93;;;;;;;;;;5015548;28;20037;-65
2022/05/02 02:20:17;;;;;;;14.55;7.35;;;;;;;;;;5015432;28;20034;-65
2022/05/02 02:22:42;;;;;;;11.85;7.47;;;;;;;;;;5015395;28;20022;-65
2022/05/02 02:25:08;;;;;;;14.73;7.50;;;;;;;;;;5015477;28;20026;-64
2022/05/02 02:27:34;;;;;;;13.63;7.50;;;;;;;;;;5015337;28;20411;-64
2022/05/02 02:30:00;;;;;;;16.67;7.68;;;;;;;;;;5015232;28;20037;-65
2022/05/02 02:32:26;;;;;;;12.95;6.78;;;;;;;;;;5015378;28;20030;-64
2022/05/02 02:34:51;;;;;;;11.63;7.03;;;;;;;;;;5015388;28;20472;-65
2022/05/02 02:37:17;;;;;;;15.02;7.60;;;;;;;;;;5015026;28;20124;-63
2022/05/02 02:39:43;;;;;;;14.10;7.60;;;;;;;;;;5015184;28;20026;-64
2022/05/02 02:42:09;;;;;;;12.75;7.43;;;;;;;;;;5014999;28;20109;-65
2022/05/02 02:44:35;;;;;;;13.75;8.00;;;;;;;;;;5014285;28;20037;-65
2022/05/02 02:47:00;;;;;;;16.10;8.30;;;;;;;;;;5015115;28;20104;-65
2022/05/02 02:49:26;;;;;;;18.13;8.32;;;;;;;;;;5015145;28;20126;-65
2022/05/02 02:51:52;;;;;;;18.77;9.65;;;;;;;;;;5015007;28;20380;-65
2022/05/02 02:54:17;;;;;;;22.20;10.27;;;;;;;;;;5014950;28;20054;-65
2022/05/02 02:56:43;;;;;;;22.42;10.10;;;;;;;;;;5014810;28;20056;-63
2022/05/02 02:59:08;;;;;;;17.63;10.38;;;;;;;;;;5014748;28;20076;-63
2022/05/02 03:01:34;;;;;;;23.55;11.45;;;;;;;;;;5014741;28;20021;-62
2022/05/02 03:06:01;;;;;;;23.52;13.68;;;;;;;;;;5014915;28;20383;-65
2022/05/02 03:06:45;;;;;;;38.47;24.20;;;;;;;;;;5014600;28;20026;-64
2022/05/02 03:09:11;;;;;;;25.38;14.50;;;;;;;;;;5014885;28;20018;-65
2022/05/02 03:11:37;;;;;;;34.80;18.45;;;;;;;;;;5014595;28;20463;-65
2022/05/02 03:14:02;;;;;;;34.75;22.20;;;;;;;;;;5014483;28;20080;-65
2022/05/02 03:16:28;;;;;;;36.83;23.23;;;;;;;;;;5014469;28;20018;-65
2022/05/02 03:18:53;;;;;;;35.58;21.27;;;;;;;;;;5014403;28;20026;-65
2022/05/02 03:21:19;;;;;;;33.38;19.08;;;;;;;;;;5014472;28;20111;-65
2022/05/02 03:23:44;;;;;;;30.42;16.00;;;;;;;;;;5012864;28;20032;-65
2022/05/02 03:26:09;;;;;;;30.73;13.68;;;;;;;;;;5014394;28;20092;-65
2022/05/02 03:28:35;;;;;;;19.35;12.52;;;;;;;;;;5014056;28;20022;-65
2022/05/02 03:31:00;;;;;;;20.70;13.95;;;;;;;;;;5014172;28;20471;-64
2022/05/02 03:33:26;;;;;;;33.50;19.58;;;;;;;;;;5014295;28;20038;-65
2022/05/02 03:35:51;;;;;;;29.20;15.23;;;;;;;;;;5014291;28;20406;-65
2022/05/02 03:38:17;;;;;;;37.63;16.85;;;;;;;;;;5013901;28;20042;-63
2022/05/02 03:40:42;;;;;;;26.55;14.57;;;;;;;;;;5014085;28;20049;-66
2022/05/02 03:43:08;;;;;;;29.73;13.88;;;;;;;;;;5013670;28;20022;-65
2022/05/02 03:45:34;;;;;;;29.30;15.63;;;;;;;;;;5014066;28;20041;-65
2022/05/02 03:47:59;;;;;;;28.25;15.70;;;;;;;;;;5014150;28;20097;-64
2022/05/02 03:50:25;;;;;;;25.33;16.63;;;;;;;;;;5014063;28;20501;-65
2022/05/02 03:52:50;;;;;;;31.52;16.70;;;;;;;;;;5013994;28;20022;-65
2022/05/02 03:55:16;;;;;;;27.98;17.13;;;;;;;;;;5013731;28;20025;-64
2022/05/02 03:57:41;;;;;;;28.17;17.20;;;;;;;;;;5013542;28;20032;-64
2022/05/02 04:00:08;;;;;;;30.08;16.08;;;;;;;;;;5013761;28;20106;-65
2022/05/02 04:02:34;;;;;;;27.77;17.55;;;;;;;;;;5013620;28;20033;-65
2022/05/02 04:05:00;;;;;;;26.60;14.90;;;;;;;;;;5013669;28;20018;-65
2022/05/02 04:07:25;;;;;;;24.92;14.05;;;;;;;;;;5013596;28;20105;-64
2022/05/02 04:09:51;;;;;;;22.27;12.82;;;;;;;;;;5013641;28;20124;-65
2022/05/02 04:12:16;;;;;;;30.40;14.35;;;;;;;;;;5013454;28;20053;-65
2022/05/02 04:14:42;;;;;;;23.48;11.98;;;;;;;;;;5013378;28;20022;-63
2022/05/02 04:17:07;;;;;;;20.67;11.50;;;;;;;;;;5013427;28;20057;-66
2022/05/02 04:19:33;;;;;;;22.65;11.38;;;;;;;;;;5013495;28;20071;-64
2022/05/02 04:21:59;;;;;;;21.30;11.65;;;;;;;;;;5013314;28;20030;-64
2022/05/02 04:24:25;;;;;;;20.73;11.23;;;;;;;;;;5013201;28;20053;-65
2022/05/02 04:26:51;;;;;;;22.70;11.48;;;;;;;;;;5013154;28;20455;-64
2022/05/02 04:29:17;;;;;;;24.23;10.93;;;;;;;;;;5013326;28;20026;-65
2022/05/02 04:31:42;;;;;;;18.90;10.05;;;;;;;;;;5013357;28;20018;-65
2022/05/02 04:34:08;;;;;;;20.00;10.10;;;;;;;;;;5013229;28;20026;-65
2022/05/02 04:36:33;;;;;;;24.67;11.18;;;;;;;;;;5013209;28;20050;-65
2022/05/02 04:38:59;;;;;;;22.15;12.00;;;;;;;;;;5013273;28;20029;-65
2022/05/02 04:41:24;;;;;;;27.17;11.60;;;;;;;;;;5013147;28;20087;-65
2022/05/02 04:43:52;;;;;;;20.98;12.02;;;;;;;;;;5013033;28;20030;-65
2022/05/02 04:46:19;;;;;;;23.75;12.27;;;;;;;;;;5013132;28;20030;-65
2022/05/02 04:48:45;;;;;;;23.23;14.20;;;;;;;;;;5013308;28;20030;-65
2022/05/02 04:51:10;;;;;;;24.42;12.93;;;;;;;;;;5013123;28;20037;-65
2022/05/02 04:53:36;;;;;;;29.38;12.18;;;;;;;;;;5013118;28;20029;-65
2022/05/02 04:56:02;;;;;;;23.17;10.20;;;;;;;;;;5012877;28;20033;-65
2022/05/02 04:58:27;;;;;;;14.63;8.57;;;;;;;;;;5013016;28;20022;-64
2022/05/02 05:00:53;;;;;;;18.13;9.63;;;;;;;;;;5013042;28;20048;-65
2022/05/02 05:03:19;;;;;;;17.92;9.20;;;;;;;;;;5012916;28;20499;-65
2022/05/02 05:05:45;;;;;;;17.90;9.05;;;;;;;;;;5012949;28;20034;-63
2022/05/02 05:08:10;;;;;;;15.20;8.80;;;;;;;;;;5016085;28;20025;-65
2022/05/02 05:10:46;;;;;;;14.35;8.20;;;;;;;;;;5016680;28;20037;-65
2022/05/02 05:13:18;;;;;;;18.75;10.05;;;;;;;;;;5017030;28;20514;-64
2022/05/02 05:16:21;;;;;;;18.42;10.10;;;;;;;;;;5016889;28;20052;-65
2022/05/02 05:19:20;;;;;;;25.13;8.98;;;;;;;;;;5016805;28;20064;-64
2022/05/02 05:22:03;;;;;;;15.98;10.02;;;;;;;;;;5016518;28;20029;-64
2022/05/02 05:24:54;;;;;;;21.25;9.43;;;;;;;;;;5016222;28;20507;-65
2022/05/02 05:27:22;;;;;;;13.32;8.93;;;;;;;;;;5016540;28;20033;-64
2022/05/02 05:30:05;;;;;;;16.35;9.48;;;;;;;;;;5016516;28;20064;-64
2022/05/02 05:33:03;;;;;;;22.23;9.63;;;;;;;;;;5016304;28;20037;-65
2022/05/02 05:35:37;;;;;;;16.25;9.32;;;;;;;;;;5016516;28;20034;-64
2022/05/02 05:38:14;;;;;;;19.27;9.60;;;;;;;;;;5016140;28;20038;-64
2022/05/02 05:40:44;;;;;;;18.92;11.18;;;;;;;;;;5016184;28;20025;-64
2022/05/02 05:43:28;;;;;;;16.27;9.55;;;;;;;;;;5016057;28;20018;-65
2022/05/02 05:46:30;;;;;;;22.95;10.07;;;;;;;;;;5016192;28;20109;-64
2022/05/02 05:49:28;;;;;;;15.93;9.95;;;;;;;;;;5016120;28;20479;-64
2022/05/02 05:52:14;;;;;;;19.17;10.20;;;;;;;;;;5016145;28;20034;-65
2022/05/02 05:54:52;;;;;;;17.83;9.30;;;;;;;;;;5015832;28;20022;-64
2022/05/02 05:57:28;;;;;;;17.45;9.88;;;;;;;;;;5016031;28;20428;-65
2022/05/02 06:00:04;;;;;;;20.90;9.48;;;;;;;;;;5016024;28;20041;-64
2022/05/02 06:03:01;;;;;;;26.08;9.13;;;;;;;;;;5015888;28;20108;-65
2022/05/02 06:05:27;;;;;;;20.08;9.55;;;;;;;;;;5015852;28;20386;-65
2022/05/02 06:07:53;;;;;;;22.65;9.95;;;;;;;;;;5015391;28;20030;-64
2022/05/02 06:10:19;;;;;;;17.90;8.90;;;;;;;;;;5015683;28;20030;-66
2022/05/02 06:12:46;;;;;;;17.40;9.00;;;;;;;;;;5015859;28;20030;-64
2022/05/02 06:20:44;;;;;;;15.80;8.77;;;;;;;;;;5015861;28;20096;-64
2022/05/02 06:23:14;;;;;;;16.67;9.02;;;;;;;;;;5013713;28;20387;-63
2022/05/02 06:25:41;;;;;;;14.60;8.07;;;;;;;;;;5015455;28;20037;-64
2022/05/02 06:28:07;;;;;;;16.75;8.38;;;;;;;;;;5015269;28;20038;-64
2022/05/02 06:30:38;;;;;;;15.55;7.65;;;;;;;;;;5015257;28;20029;-65
2022/05/02 06:33:12;;;;;;;13.40;7.72;;;;;;;;;;5015288;28;20065;-64
2022/05/02 06:36:07;;;;;;;15.10;7.43;;;;;;;;;;5015316;28;20125;-67
2022/05/02 06:38:50;;;;;;;13.07;7.57;;;;;;;;;;4993252;28;20106;-65
2022/05/02 06:41:46;;;;;;;12.52;7.32;;;;;;;;;;4993475;28;20054;-64
2022/05/02 06:44:30;;;;;;;10.63;6.90;;;;;;;;;;4993309;28;20038;-65
2022/05/02 06:47:04;;;;;;;13.05;7.47;;;;;;;;;;4993334;28;20088;-65
2022/05/02 06:49:33;;;;;;;13.30;7.00;;;;;;;;;;4993395;28;20101;-65
2022/05/02 06:52:07;;;;;;;14.32;7.57;;;;;;;;;;4993086;28;20384;-64
2022/05/02 06:55:00;;;;;;;16.02;7.65;;;;;;;;;;4993354;28;20125;-63
2022/05/02 06:57:31;;;;;;;18.40;8.98;;;;;;;;;;4993236;28;20157;-64
2022/05/02 07:00:03;;;;;;;17.38;8.52;;;;;;;;;;4993211;28;20121;-64
2022/05/02 07:02:49;;;;;;;18.27;9.75;;;;;;;;;;4992964;28;20439;-64
2022/05/02 07:05:50;;;;;;;18.58;10.13;;;;;;;;;;4993239;28;20045;-65
2022/05/02 07:08:26;;;;;;;16.95;8.55;;;;;;;;;;4992865;28;20047;-65
2022/05/02 07:11:03;;;;;;;14.88;7.50;;;;;;;;;;4992959;28;20034;-65
2022/05/02 07:13:57;;;;;;;12.48;6.60;;;;;;;;;;4992876;28;20027;-65
2022/05/02 07:16:23;;;;;;;15.40;6.97;;;;;;;;;;5013427;28;20038;-65
2022/05/02 07:18:55;;;;;;;13.98;6.63;;;;;;;;;;5014441;28;20404;-65
2022/05/02 07:21:53;;;;;;;13.05;6.32;;;;;;;;;;5014331;28;20372;-65
2022/05/02 07:24:37;;;;;;;9.30;4.40;;;;;;;;;;5005103;28;20121;-65
2022/05/02 07:27:10;;;;;;;11.77;5.97;;;;;;;;;;5014280;28;20340;-64
2022/05/02 07:29:37;;;;;;;11.05;5.25;;;;;;;;;;5013771;28;20049;-65
2022/05/02 07:32:06;;;;;;;12.23;5.43;;;;;;;;;;5014269;28;20037;-62
2022/05/02 07:34:36;;;;;;;8.77;4.97;;;;;;;;;;5014032;28;20022;-65
2022/05/02 07:37:02;;;;;;;13.25;4.78;;;;;;;;;;5013932;28;20042;-62
2022/05/02 07:39:30;;;;;;;8.40;4.35;;;;;;;;;;5014276;28;20033;-62
2022/05/02 07:42:02;;;;;;;9.18;4.95;;;;;;;;;;5014019;28;20022;-64
2022/05/02 07:44:34;;;;;;;11.32;4.95;;;;;;;;;;5014001;28;20022;-64
2022/05/02 07:47:03;;;;;;;7.70;4.60;;;;;;;;;;5013764;28;20057;-63
2022/05/02 07:49:32;;;;;;;10.95;4.65;;;;;;;;;;5013779;28;20530;-64
2022/05/02 07:52:00;;;;;;;9.65;3.92;;;;;;;;;;5013986;28;20030;-65
2022/05/02 07:54:28;;;;;;;11.25;4.55;;;;;;;;;;5013801;28;20026;-65
2022/05/02 07:57:00;;;;;;;6.93;4.50;;;;;;;;;;5013692;28;20053;-64
2022/05/02 07:59:30;;;;;;;9.88;4.50;;;;;;;;;;5013676;28;20390;-65
2022/05/02 08:01:56;;;;;;;9.90;5.07;;;;;;;;;;5013672;28;20026;-63
2022/05/02 08:04:23;;;;;;;8.23;5.35;;;;;;;;;;5013243;28;20107;-65
2022/05/02 08:07:13;;;;;;;18.17;6.95;;;;;;;;;;5013624;28;20034;-65
2022/05/02 08:10:17;;;;;;;9.20;5.43;;;;;;;;;;5013522;28;20029;-65
2022/05/02 08:12:56;;;;;;;11.90;4.93;;;;;;;;;;5012246;28;20057;-65
2022/05/02 08:15:37;;;;;;;9.70;5.30;;;;;;;;;;5013490;28;20022;-64
2022/05/02 08:18:36;;;;;;;11.57;5.60;;;;;;;;;;5013304;28;20475;-65
2022/05/02 08:21:11;;;;;;;8.98;5.53;;;;;;;;;;5013323;28;20033;-65
2022/05/02 08:27:43;;;;;;;6.03;3.45;;;;;;;;;;4991591;28;20045;-64
2022/05/02 08:30:16;;;;;;;10.07;3.90;;;;;;;;;;4991683;28;20022;-65
2022/05/02 08:33:00;;;;;;;6.35;3.70;;;;;;;;;;4991377;28;20122;-65
2022/05/02 08:35:44;;;;;;;7.93;3.90;;;;;;;;;;4991513;28;20034;-65
2022/05/02 08:38:18;;;;;;;8.07;3.65;;;;;;;;;;4991131;28;20108;-65
2022/05/02 08:41:23;;;;;;;7.53;3.40;;;;;;;;;;4991201;28;20435;-65
2022/05/02 08:44:19;;;;;;;6.75;2.60;;;;;;;;;;4876733;29;20049;-64
2022/05/02 08:47:12;;;;;;;6.72;2.88;;;;;;;;;;4876821;29;20156;-65
2022/05/02 08:49:44;;;;;;;5.25;2.80;;;;;;;;;;4876928;29;20029;-64
2022/05/02 08:52:40;;;;;;;6.35;2.97;;;;;;;;;;4876845;29;20048;-65
2022/05/02 08:55:14;;;;;;;6.65;3.53;;;;;;;;;;4876879;29;20049;-65
2022/05/02 08:58:19;;;;;;;7.22;2.88;;;;;;;;;;4876934;29;20044;-65
2022/05/02 09:01:03;;;;;;;19.48;3.42;;;;;;;;;;4795338;29;20125;-65
2022/05/02 09:04:12;;;;;;;7.95;2.58;;;;;;;;;;4803219;29;20053;-63
2022/05/02 09:07:05;;;;;;;7.00;2.33;;;;;;;;;;4767530;30;20038;-65
2022/05/02 09:09:40;;;;;;;7.90;2.60;;;;;;;;;;4767413;30;20047;-63
2022/05/02 09:12:27;;;;;;;5.07;2.47;;;;;;;;;;4767637;30;20056;-63
2022/05/02 09:15:20;;;;;;;8.38;2.90;;;;;;;;;;4767673;30;20115;-65
2022/05/02 09:17:57;;;;;;;6.05;3.00;;;;;;;;;;4767314;30;20097;-64
2022/05/02 09:21:04;;;;;;;7.05;3.13;;;;;;;;;;4803111;29;20449;-65
2022/05/02 09:23:29;;;;;;;7.00;2.88;;;;;;;;;;4858009;29;20041;-65
2022/05/02 09:26:10;;;;;;;7.72;2.60;;;;;;;;;;4857964;29;20030;-64
2022/05/02 09:28:38;;;;;;;7.50;2.83;;;;;;;;;;4858472;29;20384;-65
2022/05/02 09:31:16;;;;;;;6.30;2.75;;;;;;;;;;4857825;29;20098;-64
2022/05/02 09:34:06;;;;;;;3.05;1.58;;;;;;;;;;4858036;29;20073;-64
2022/05/02 09:36:37;;;;;;;;;;;;;;;;;;4864317;29;20218;-65
2022/05/02 09:39:06;;;;;;;6.13;2.00;;;;;;;;;;4952224;28;19925;-65
2022/05/02 09:41:58;;;;;;;4.45;2.35;;;;;;;;;;5004649;28;20034;-65
2022/05/02 09:51:11;;;;;;;8.38;3.10;;;;;;;;;;5012746;28;20044;-64
2022/05/02 09:53:55;;;;;;;7.63;2.53;;;;;;;;;;5014698;28;20057;-63
2022/05/02 09:56:39;;;;;;;5.50;2.30;;;;;;;;;;5015807;28;20029;-64
2022/05/02 09:59:07;;;;;;;8.32;2.90;;;;;;;;;;5015904;28;20061;-63
2022/05/02 10:01:34;;;;;;;5.75;2.88;;;;;;;;;;5015717;28;20026;-65
2022/05/02 10:04:30;;;;;;;10.02;2.75;;;;;;;;;;5015851;28;20472;-64
2022/05/02 10:07:03;;;;;;;8.27;3.00;;;;;;;;;;5015716;28;20065;-65
2022/05/02 10:09:50;;;;;;;5.75;2.63;;;;;;;;;;5015737;28;20021;-65
2022/05/02 10:12:49;;;;;;;5.82;2.78;;;;;;;;;;5015719;28;20036;-64
2022/05/02 10:15:46;;;;;;;5.63;2.50;;;;;;;;;;5015516;28;20106;-64
2022/05/02 10:18:14;;;;;;;8.68;2.35;;;;;;;;;;5015683;28;20369;-65
2022/05/02 10:20:58;;;;;;;8.15;2.17;;;;;;;;;;5015507;28;20422;-65
2022/05/02 10:23:50;;;;;;;3.83;2.50;;;;;;;;;;5015440;28;20030;-65
2022/05/02 10:27:02;;;;;;;4.82;2.20;;;;;;;;;;5015499;28;20072;-63
2022/05/02 10:29:47;;;;;;;10.02;2.70;;;;;;;;;;4993448;28;20117;-63
2022/05/02 10:32:33;;;;;;;9.63;2.50;;;;;;;;;;4993550;28;20132;-63
2022/05/02 10:35:03;;;;;;;5.82;2.38;;;;;;;;;;4993567;28;20026;-64
2022/05/02 10:37:33;;;;;;;6.60;2.85;;;;;;;;;;4993435;28;20412;-65
2022/05/02 10:40:04;;;;;;;6.43;2.30;;;;;;;;;;4993566;28;20026;-66
2022/05/02 10:42:32;;;;;;;5.40;2.10;;;;;;;;;;4993423;28;20595;-63
2022/05/02 10:45:08;;;;;;;4.95;2.33;;;;;;;;;;4993050;28;20392;-63
2022/05/02 10:47:52;;;;;;;8.75;2.08;;;;;;;;;;4993274;28;20449;-63
2022/05/02 10:50:20;;;;;;;7.40;2.72;;;;;;;;;;4993276;28;20045;-64
2022/05/02 10:52:46;;;;;;;3.80;2.25;;;;;;;;;;4993270;28;20101;-64
2022/05/02 10:55:26;;;;;;;4.75;2.13;;;;;;;;;;4993355;28;20031;-65
2022/05/02 10:57:59;;;;;;;6.45;2.50;;;;;;;;;;4992897;28;20035;-64
2022/05/02 11:00:26;;;;;;;7.68;2.92;;;;;;;;;;4993052;28;20084;-64
2022/05/02 11:03:10;;;;;;;9.65;3.00;;;;;;;;;;4992997;28;20519;-64
2022/05/02 11:05:53;;;;;;;5.22;2.47;;;;;;;;;;5008043;28;20072;-64
2022/05/02 11:08:26;;;;;;;13.43;2.83;;;;;;;;;;5014595;28;20033;-64
2022/05/02 11:10:57;;;;;;;14.98;2.80;;;;;;;;;;5014669;28;20018;-64
2022/05/02 11:13:37;;;;;;;9.13;2.92;;;;;;;;;;5014375;28;20072;-64
2022/05/02 11:16:19;;;;;;;6.63;2.58;;;;;;;;;;5014819;28;20104;-64
2022/05/02 11:22:29;;;;;;;7.20;2.78;;;;;;;;;;5014575;28;20494;-64
2022/05/02 11:24:57;;;;;;;;;;;;;;;;;;5014770;28;20082;-65
2022/05/02 11:27:48;;;;;;;5.80;2.40;;;;;;;;;;5014134;28;19920;-64
2022/05/02 11:30:28;;;;;;;4.93;2.60;;;;;;;;;;4976134;28;20034;-65
2022/05/02 11:33:12;;;;;;;6.68;3.55;;;;;;;;;;4992356;28;20511;-64
2022/05/02 11:35:40;;;;;;;7.15;3.53;;;;;;;;;;4992481;28;20157;-65
2022/05/02 11:38:36;;;;;;;5.97;3.33;;;;;;;;;;4992174;28;20046;-62
2022/05/02 11:41:08;;;;;;;4.25;2.42;;;;;;;;;;4992228;28;20049;-63
2022/05/02 11:43:36;;;;;;;6.57;3.10;;;;;;;;;;4992207;28;20070;-64
2022/05/02 11:46:02;;;;;;;10.02;3.78;;;;;;;;;;4992268;28;20023;-65
2022/05/02 11:48:56;;;;;;;5.07;2.90;;;;;;;;;;4992088;28;20053;-65
2022/05/02 11:51:50;;;;;;;5.63;2.95;;;;;;;;;;4992320;28;20030;-64
2022/05/02 11:54:27;;;;;;;6.80;2.70;;;;;;;;;;4991763;28;20089;-64
2022/05/02 11:57:08;;;;;;;4.35;3.00;;;;;;;;;;4991981;28;20137;-64
2022/05/02 11:59:59;;;;;;;8.30;2.90;;;;;;;;;;4992103;28;20154;-65
2022/05/02 12:02:36;;;;;;;6.88;3.25;;;;;;;;;;4991904;28;20096;-65
2022/05/02 12:05:09;;;;;;;6.18;2.88;;;;;;;;;;4992061;28;20045;-64
2022/05/02 12:07:36;;;;;;;13.77;3.35;;;;;;;;;;5004896;28;20207;-64
2022/05/02 12:10:07;;;;;;;7.88;3.00;;;;;;;;;;5013373;28;20038;-65
2022/05/02 12:12:34;;;;;;;5.15;2.83;;;;;;;;;;5013563;28;20025;-64
2022/05/02 12:15:01;;;;;;;4.43;3.10;;;;;;;;;;5013548;28;20080;-64
2022/05/02 12:17:27;;;;;;;5.65;2.88;;;;;;;;;;5012418;28;20116;-64
2022/05/02 12:19:52;;;;;;;6.85;2.78;;;;;;;;;;5013353;28;20113;-64
2022/05/02 12:22:26;;;;;;;5.30;2.60;;;;;;;;;;5013311;28;20057;-64
2022/05/02 12:24:55;;;;;;;10.32;3.22;;;;;;;;;;5013101;28;20113;-64
2022/05/02 12:27:25;;;;;;;5.13;2.63;;;;;;;;;;5013296;28;20028;-65
2022/05/02 12:29:58;;;;;;;24.45;2.90;;;;;;;;;;5013189;28;20486;-64
2022/05/02 12:32:25;;;;;;;6.75;2.55;;;;;;;;;;5013113;28;20054;-64
2022/05/02 12:34:55;;;;;;;3.70;2.50;;;;;;;;;;5013057;28;20028;-64
2022/05/02 12:37:32;;;;;;;6.43;2.53;;;;;;;;;;5012952;28;20038;-64
2022/05/02 12:40:11;;;;;;;4.97;2.75;;;;;;;;;;5011585;28;20064;-64
2022/05/02 12:42:48;;;;;;;3.72;2.30;;;;;;;;;;5013021;28;20054;-64
2022/05/02 12:45:17;;;;;;;8.95;3.13;;;;;;;;;;5012968;28;20030;-64
2022/05/02 12:47:51;;;;;;;6.18;2.80;;;;;;;;;;5013089;28;20117;-65
2022/05/02 12:50:22;;;;;;;6.68;3.05;;;;;;;;;;5012976;28;20037;-63
2022/05/02 12:52:54;;;;;;;9.70;3.20;;;;;;;;;;5013183;28;20119;-63
2022/05/02 12:55:21;;;;;;;5.10;3.00;;;;;;;;;;5012643;28;20030;-63
2022/05/02 13:00:41;;;;;;;5.00;2.92;;;;;;;;;;5013234;28;20482;-63
2022/05/02 13:03:14;;;;;;;9.27;2.90;;;;;;;;;;5012777;28;20025;-64
2022/05/02 13:05:53;;;;;;;8.23;3.30;;;;;;;;;;5011542;28;20033;-63
2022/05/02 13:08:33;;;;;;;7.43;2.70;;;;;;;;;;5012667;28;20022;-64
2022/05/02 13:11:11;;;;;;;8.35;3.00;;;;;;;;;;5012943;28;20491;-64
2022/05/02 13:13:49;;;;;;;9.93;3.55;;;;;;;;;;5012457;28;20537;-64
2022/05/02 13:16:31;;;;;;;6.15;2.92;;;;;;;;;;5012708;28;20399;-63
2022/05/02 13:19:08;;;;;;;5.70;3.00;;;;;;;;;;5012732;28;20022;-64
2022/05/02 13:21:34;;;;;;;5.30;2.65;;;;;;;;;;5012582;28;20036;-62
2022/05/02 13:24:10;;;;;;;7.38;3.15;;;;;;;;;;5012271;28;20077;-63
2022/05/02 13:27:11;;;;;;;7.93;3.20;;;;;;;;;;5012663;28;20084;-63
2022/05/02 13:29:42;;;;;;;6.05;3.03;;;;;;;;;;4994641;28;20070;-63
2022/05/02 13:32:11;;;;;;;4.35;2.60;;;;;;;;;;4994442;28;20121;-64
2022/05/02 13:34:39;;;;;;;6.18;2.35;;;;;;;;;;4994737;28;20031;-64
2022/05/02 13:37:25;;;;;;;5.28;2.40;;;;;;;;;;4994043;28;20070;-63
2022/05/02 13:40:02;;;;;;;6.38;2.50;;;;;;;;;;4994637;28;20042;-63
2022/05/02 13:42:42;;;;;;;8.05;2.53;;;;;;;;;;4994542;28;20049;-63
2022/05/02 13:45:26;;;;;;;;;;;;;;;;;;4995029;28;20046;-66
2022/05/02 13:48:14;;;;;;;5.53;3.40;;;;;;;;;;4994623;28;19913;-63
2022/05/02 13:50:45;;;;;;;7.47;3.20;;;;;;;;;;4994411;28;20445;-65
2022/05/02 13:53:28;;;;;;;7.97;3.08;;;;;;;;;;4994081;28;20186;-63
2022/05/02 13:56:07;;;;;;;6.20;3.92;;;;;;;;;;4994225;28;20392;-63
2022/05/02 13:59:05;;;;;;;6.75;3.22;;;;;;;;;;4994255;28;20030;-67
2022/05/02 14:01:42;;;;;;;8.45;3.05;;;;;;;;;;4994195;28;20038;-66
2022/05/02 14:04:19;;;;;;;11.98;3.58;;;;;;;;;;5009880;28;20430;-65
2022/05/02 14:09:47;;;;;;;10.30;3.78;;;;;;;;;;5015527;28;20013;-63
2022/05/02 14:12:22;;;;;;;6.57;3.40;;;;;;;;;;5015609;28;20022;-63
2022/05/02 14:14:59;;;;;;;10.70;3.33;;;;;;;;;;5015617;28;20163;-63
2022/05/02 14:17:42;;;;;;;8.57;3.35;;;;;;;;;;5015597;28;20109;-64
2022/05/02 14:20:25;;;;;;;6.28;3.10;;;;;;;;;;5015540;28;20097;-64
2022/05/02 14:23:02;;;;;;;10.15;3.70;;;;;;;;;;5015137;28;20044;-63
2022/05/02 14:25:36;;;;;;;7.88;3.63;;;;;;;;;;5015274;28;20026;-63
2022/05/02 14:28:08;;;;;;;6.30;3.50;;;;;;;;;;5015374;28;20030;-63
2022/05/02 14:30:37;;;;;;;6.22;3.40;;;;;;;;;;5015264;28;20033;-63
2022/05/02 14:33:06;;;;;;;7.35;3.50;;;;;;;;;;5015119;28;20480;-64
2022/05/02 14:35:39;;;;;;;8.07;2.90;;;;;;;;;;5014856;28;20030;-65
2022/05/02 14:38:08;;;;;;;5.43;2.90;;;;;;;;;;5014954;28;20226;-64
2022/05/02 14:40:37;;;;;;;7.47;2.90;;;;;;;;;;5014119;28;20034;-64
2022/05/02 14:43:04;;;;;;;9.05;4.00;;;;;;;;;;5014817;28;20030;-64
2022/05/02 14:45:30;;;;;;;8.35;3.30;;;;;;;;;;5015075;28;20026;-65
2022/05/02 14:47:56;;;;;;;10.27;3.47;;;;;;;;;;5014763;28;20578;-65
2022/05/02 14:50:26;;;;;;;5.72;3.10;;;;;;;;;;5014878;28;20471;-64
2022/05/02 14:52:52;;;;;;;7.00;3.70;;;;;;;;;;5014995;28;20029;-65
2022/05/02 14:55:19;;;;;;;8.35;3.13;;;;;;;;;;5014792;28;20116;-65
2022/05/02 14:57:51;;;;;;;6.88;3.30;;;;;;;;;;5014730;28;20036;-66
2022/05/02 15:00:19;;;;;;;6.43;3.05;;;;;;;;;;5013570;28;20018;-65
2022/05/02 15:02:47;;;;;;;6.35;2.88;;;;;;;;;;5014609;28;20037;-65
2022/05/02 15:05:16;;;;;;;6.70;2.53;;;;;;;;;;5014456;28;20036;-64
2022/05/02 15:08:11;;;;;;;10.40;3.35;;;;;;;;;;5014434;28;20045;-64
2022/05/02 15:11:05;;;;;;;4.30;2.65;;;;;;;;;;5014589;28;20034;-63
2022/05/02 15:13:40;;;;;;;4.97;2.80;;;;;;;;;;5014452;28;20025;-65
2022/05/02 15:16:23;;;;;;;6.35;2.70;;;;;;;;;;5013164;28;20387;-63
2022/05/02 15:21:52;;;;;;;4.85;3.00;;;;;;;;;;5014287;28;20064;-65
2022/05/02 15:24:46;;;;;;;5.40;2.83;;;;;;;;;;5014068;28;20041;-65
2022/05/02 15:38:47;;;;;;;7.38;2.60;;;;;;;;;;5013818;28;20073;-65
2022/05/02 15:41:12;;;;;;;6.75;2.70;;;;;;;;;;5014166;28;20025;-65
2022/05/02 15:43:38;;;;;;;7.57;3.10;;;;;;;;;;5013931;28;20034;-65
2022/05/02 15:46:13;;;;;;;10.10;3.60;;;;;;;;;;5013929;28;20037;-65
2022/05/02 15:48:39;;;;;;;6.63;3.33;;;;;;;;;;5013802;28;20056;-65
2022/05/02 15:51:14;;;;;;;7.63;3.20;;;;;;;;;;5013634;28;20041;-65
2022/05/02 15:53:40;;;;;;;6.22;3.05;;;;;;;;;;5013695;28;20145;-66
2022/05/02 15:56:13;;;;;;;5.45;3.05;;;;;;;;;;5013592;28;20034;-66